createdAt,value
2022-12-04T00:00:30.698Z,99635.78
2022-12-04T00:03:45.142Z,99640.47
2022-12-04T00:07:01.238Z,99630.77
2022-12-04T00:10:15.718Z,99636.02
2022-12-04T00:13:27.396Z,99634.99
2022-12-04T00:16:39.448Z,99627.94
2022-12-04T00:19:51.358Z,99628.73
2022-12-04T00:23:03.004Z,99633.06
2022-12-04T00:26:19.003Z,99630.38
2022-12-04T00:29:30.949Z,99620.95
2022-12-04T00:32:42.744Z,99624.25
2022-12-04T00:35:54.649Z,99624.50
2022-12-04T00:39:08.493Z,99627.05
2022-12-04T00:42:20.322Z,99634.99
2022-12-04T00:45:32.093Z,99627.16
2022-12-04T00:48:44.818Z,99624.67
2022-12-04T00:51:56.522Z,99620.30
2022-12-04T00:55:08.740Z,99620.55
2022-12-04T00:58:20.971Z,99612.50
2022-12-04T01:01:33.820Z,99615.25
2022-12-04T01:04:45.624Z,99603.87
2022-12-04T01:07:57.375Z,99595.23
2022-12-04T01:11:12.790Z,99591.05
2022-12-04T01:14:24.413Z,99594.16
2022-12-04T01:17:36.196Z,99591.48
2022-12-04T01:20:52.756Z,99583.75
2022-12-04T01:24:04.950Z,99580.34
2022-12-04T01:27:16.843Z,99576.77
2022-12-04T01:30:28.755Z,99571.60
2022-12-04T01:33:41.580Z,99575.66
2022-12-04T01:36:53.462Z,99574.08
2022-12-04T01:40:05.137Z,99577.87
2022-12-04T01:43:20.569Z,99575.25
2022-12-04T01:46:32.252Z,99575.91
2022-12-04T01:49:49.369Z,99569.64
2022-12-04T01:52:59.200Z,99571.46
2022-12-04T01:56:12.746Z,99559.18
2022-12-04T01:59:28.788Z,99565.59
2022-12-04T02:02:42.953Z,99564.02
2022-12-04T02:05:54.644Z,99561.33
2022-12-04T02:09:07.093Z,99565.45
2022-12-04T02:12:24.852Z,99565.20
2022-12-04T02:15:42.388Z,99563.63
2022-12-04T02:19:01.760Z,99561.01
2022-12-04T02:22:19.324Z,99561.55
2022-12-04T02:25:39.416Z,99557.17
2022-12-04T02:28:55.878Z,99556.45
2022-12-04T02:32:13.922Z,99566.77
2022-12-04T02:35:31.159Z,99560.50
2022-12-04T02:38:50.897Z,99555.27
2022-12-04T02:42:08.700Z,99565.37
2022-12-04T02:45:24.676Z,99563.66
2022-12-04T02:48:40.922Z,99555.02
2022-12-04T02:51:55.430Z,99566.87
2022-12-04T02:55:12.586Z,99564.19
2022-12-04T02:58:30.297Z,99560.52
2022-12-04T03:01:46.523Z,99568.30
2022-12-04T03:05:01.564Z,99559.55
2022-12-04T03:08:18.457Z,99558.51
2022-12-04T03:11:33.092Z,99567.07
2022-12-04T03:14:48.761Z,99568.91
2022-12-04T03:18:05.443Z,99564.34
2022-12-04T03:21:20.877Z,99564.38
2022-12-04T03:24:37.355Z,99561.58
2022-12-04T03:27:55.840Z,99565.84
2022-12-04T03:31:12.184Z,99564.08
2022-12-04T03:34:30.604Z,99563.86
2022-12-04T03:37:47.772Z,99571.70
2022-12-04T03:41:04.545Z,99566.55
2022-12-04T03:44:21.917Z,99564.00
2022-12-04T03:47:40.371Z,99562.17
2022-12-04T03:50:56.618Z,99566.55
2022-12-04T03:54:14.253Z,99560.61
2022-12-04T03:57:31.278Z,99556.67
2022-12-04T04:00:44.407Z,99559.67
2022-12-04T04:04:00.463Z,99567.78
2022-12-04T04:07:18.064Z,99559.75
2022-12-04T04:10:32.499Z,99561.72
2022-12-04T04:14:04.309Z,99554.66
2022-12-04T04:17:38.727Z,99566.02
2022-12-04T04:21:08.007Z,99567.07
2022-12-04T04:24:29.680Z,99563.55
2022-12-04T04:27:41.396Z,99570.55
2022-12-04T04:30:53.240Z,99569.69
2022-12-04T04:34:11.630Z,99564.38
2022-12-04T04:37:32.331Z,99567.14
2022-12-04T04:40:48.608Z,99560.16
2022-12-04T04:44:06.547Z,99559.93
2022-12-04T04:47:24.168Z,99551.00
2022-12-04T04:50:38.886Z,99549.20
2022-12-04T04:53:55.390Z,99545.77
2022-12-04T04:57:06.947Z,99543.00
2022-12-04T05:00:25.872Z,99549.28
2022-12-04T05:03:38.414Z,99549.80
2022-12-04T05:06:50.215Z,99559.33
2022-12-04T05:10:01.911Z,99559.33
2022-12-04T05:13:17.975Z,99566.14
2022-12-04T05:16:30.210Z,99548.75
2022-12-04T05:19:58.198Z,99552.41
2022-12-04T05:23:10.565Z,99548.05
2022-12-04T05:26:22.318Z,99542.73
2022-12-04T05:29:36.112Z,99552.15
2022-12-04T05:32:48.248Z,99557.31
2022-12-04T05:36:06.410Z,99564.30
2022-12-04T05:39:18.744Z,99560.78
2022-12-04T05:42:30.401Z,99558.28
2022-12-04T05:45:43.174Z,99565.31
2022-12-04T05:48:54.828Z,99552.94
2022-12-04T05:52:07.950Z,99561.95
2022-12-04T05:55:19.750Z,99570.73
2022-12-04T05:58:32.112Z,99569.69
2022-12-04T06:01:44.258Z,99565.23
2022-12-04T06:04:56.785Z,99571.37
2022-12-04T06:08:08.780Z,99568.63
2022-12-04T06:11:24.374Z,99569.42
2022-12-04T06:14:39.480Z,99573.72
2022-12-04T06:17:50.018Z,99572.89
2022-12-04T06:21:04.835Z,99565.16
2022-12-04T06:24:22.345Z,99569.95
2022-12-04T06:27:35.752Z,99578.44
2022-12-04T06:30:47.440Z,99580.94
2022-12-04T06:34:01.651Z,99579.17
2022-12-04T06:37:13.494Z,99579.17
2022-12-04T06:40:25.537Z,99580.00
2022-12-04T06:43:37.347Z,99576.48
2022-12-04T06:46:50.052Z,99579.89
2022-12-04T06:50:02.144Z,99560.64
2022-12-04T06:53:13.849Z,99567.59
2022-12-04T06:56:27.947Z,99571.84
2022-12-04T06:59:40.011Z,99563.92
2022-12-04T07:02:51.865Z,99572.94
2022-12-04T07:06:03.744Z,99563.25
2022-12-04T07:09:18.975Z,99568.48
2022-12-04T07:12:30.818Z,99569.27
2022-12-04T07:15:43.734Z,99565.60
2022-12-04T07:18:56.711Z,99565.67
2022-12-04T07:22:09.657Z,99558.41
2022-12-04T07:25:21.745Z,99572.41
2022-12-04T07:28:33.399Z,99566.34
2022-12-04T07:31:45.515Z,99573.27
2022-12-04T07:34:57.429Z,99566.34
2022-12-04T07:38:09.160Z,99563.66
2022-12-04T07:41:21.938Z,99553.03
2022-12-04T07:44:37.190Z,99561.55
2022-12-04T07:47:49.014Z,99552.83
2022-12-04T07:51:10.162Z,99547.52
2022-12-04T07:54:22.465Z,99551.34
2022-12-04T07:57:35.083Z,99546.23
2022-12-04T08:00:46.746Z,99549.63
2022-12-04T08:04:03.129Z,99545.88
2022-12-04T08:07:15.288Z,99551.08
2022-12-04T08:14:09.547Z,99552.48
2022-12-04T08:17:21.297Z,99551.86
2022-12-04T08:23:36.509Z,99557.88
2022-12-04T08:34:12.459Z,99567.33
2022-12-04T08:37:27.667Z,99571.47
2022-12-04T08:40:41.759Z,99565.22
2022-12-04T08:47:33.955Z,99564.91
2022-12-04T08:54:01.755Z,99573.23
2022-12-04T09:01:06.433Z,99575.58
2022-12-04T09:08:53.826Z,99574.89
2022-12-04T09:19:09.746Z,99573.91
2022-12-04T09:22:21.698Z,99571.98
2022-12-04T09:25:41.015Z,99578.91
2022-12-04T09:43:06.387Z,99559.70
2022-12-04T09:46:24.066Z,99552.77
2022-12-04T09:57:05.524Z,99544.45
2022-12-04T10:01:06.744Z,99534.45
2022-12-04T10:44:55.641Z,99462.68
2022-12-04T10:56:43.610Z,99463.39
2022-12-04T11:07:41.023Z,99451.75
2022-12-04T11:11:05.590Z,99448.85
2022-12-04T11:14:25.134Z,99433.52
2022-12-04T11:17:37.614Z,99428.20
2022-12-04T11:20:57.886Z,99427.51
2022-12-04T11:24:10.828Z,99420.70
2022-12-04T11:27:31.847Z,99420.27
2022-12-04T11:30:45.085Z,99418.69
2022-12-04T11:34:01.340Z,99409.34
2022-12-04T11:37:23.141Z,99414.64
2022-12-04T11:40:40.931Z,99422.06
2022-12-04T11:44:00.193Z,99420.33
2022-12-04T11:47:20.565Z,99413.72
2022-12-04T11:50:42.624Z,99407.08
2022-12-04T11:53:59.667Z,99403.08
2022-12-04T11:57:19.117Z,99403.32
2022-12-04T12:00:32.824Z,99411.04
2022-12-04T12:03:51.694Z,99406.38
2022-12-04T12:07:14.164Z,99410.29
2022-12-04T12:10:31.998Z,99410.40
2022-12-04T12:13:52.427Z,99407.48
2022-12-04T12:17:16.326Z,99413.78
2022-12-04T12:20:33.828Z,99404.20
2022-12-04T12:24:01.476Z,99415.28
2022-12-04T12:27:24.080Z,99406.86
2022-12-04T12:30:41.582Z,99395.28
2022-12-04T12:33:58.908Z,99394.42
2022-12-04T12:37:20.490Z,99391.04
2022-12-04T12:40:41.170Z,99395.67
2022-12-04T12:44:00.074Z,99394.40
2022-12-04T12:47:17.194Z,99390.16
2022-12-04T12:50:32.930Z,99385.07
2022-12-04T12:53:51.247Z,99384.89
2022-12-04T12:57:10.565Z,99387.17
2022-12-04T13:00:26.713Z,99385.68
2022-12-04T13:03:47.571Z,99380.80
2022-12-04T13:07:06.369Z,99380.95
2022-12-04T13:10:24.166Z,99377.98
2022-12-04T13:13:39.321Z,99384.00
2022-12-04T13:16:55.520Z,99386.82
2022-12-04T13:20:15.591Z,99389.95
2022-12-04T13:23:45.198Z,99383.83
2022-12-04T13:27:04.155Z,99385.55
2022-12-04T13:30:24.668Z,99392.34
2022-12-04T13:33:58.180Z,99397.23
2022-12-04T13:37:37.025Z,99399.02
2022-12-04T13:40:54.271Z,99408.51
2022-12-04T13:44:07.339Z,99409.25
2022-12-04T13:47:31.701Z,99411.69
2022-12-04T13:50:45.539Z,99410.70
2022-12-04T13:54:28.120Z,99409.39
2022-12-04T13:57:40.236Z,99413.49
2022-12-04T14:00:55.650Z,99408.78
2022-12-04T14:04:08.798Z,99411.77
2022-12-04T14:07:32.968Z,99410.25
2022-12-04T14:10:51.353Z,99413.89
2022-12-04T14:14:08.127Z,99412.06
2022-12-04T14:17:28.735Z,99421.20
2022-12-04T14:20:44.400Z,99420.80
2022-12-04T14:23:57.949Z,99401.59
2022-12-04T14:27:38.857Z,99415.46
2022-12-04T14:30:59.295Z,99418.52
2022-12-04T14:34:27.168Z,99425.30
2022-12-04T14:37:45.332Z,99413.45
2022-12-04T14:41:01.715Z,99417.17
2022-12-04T14:44:25.514Z,99430.73
2022-12-04T14:47:49.783Z,99430.53
2022-12-04T14:51:09.363Z,99431.63
2022-12-04T14:54:27.883Z,99426.84
2022-12-04T14:57:50.885Z,99437.08
2022-12-04T15:01:04.703Z,99431.06
2022-12-04T15:04:23.080Z,99427.98
2022-12-04T15:07:38.864Z,99435.41
2022-12-04T15:11:13.621Z,99420.16
2022-12-04T15:14:27.393Z,99427.39
2022-12-04T15:17:39.181Z,99428.65
2022-12-04T15:21:01.505Z,99430.81
2022-12-04T15:24:24.318Z,99427.56
2022-12-04T15:27:36.989Z,99435.59
2022-12-04T15:30:50.590Z,99438.44
2022-12-04T15:34:07.080Z,99435.90
2022-12-04T15:37:26.353Z,99440.23
2022-12-04T15:40:38.745Z,99441.23
2022-12-04T15:43:52.076Z,99441.36
2022-12-04T15:47:06.987Z,99437.14
2022-12-04T15:50:28.200Z,99445.92
2022-12-04T15:53:44.096Z,99450.61
2022-12-04T15:57:08.775Z,99472.30
2022-12-04T16:00:33.705Z,99474.14
2022-12-04T16:03:52.996Z,99476.04
2022-12-04T16:07:04.907Z,99472.59
2022-12-04T16:10:31.184Z,99462.11
2022-12-04T16:13:44.730Z,99468.34
2022-12-04T16:17:05.577Z,99467.48
2022-12-04T16:20:16.872Z,99465.64
2022-12-04T16:23:33.533Z,99469.97
2022-12-04T16:26:51.481Z,99461.47
2022-12-04T16:30:08.221Z,99453.69
2022-12-04T16:33:25.027Z,99455.33
2022-12-04T16:36:52.984Z,99470.88
2022-12-04T16:40:12.910Z,99469.41
2022-12-04T16:43:25.792Z,99477.36
2022-12-04T16:46:37.675Z,99466.92
2022-12-04T16:49:53.582Z,99463.61
2022-12-04T16:53:05.780Z,99467.47
2022-12-04T16:56:17.880Z,99468.23
2022-12-04T16:59:29.950Z,99467.47
2022-12-04T17:02:41.872Z,99467.95
2022-12-04T17:05:53.788Z,99466.10
2022-12-04T17:09:05.769Z,99468.23
2022-12-04T17:12:17.799Z,99472.78
2022-12-04T17:15:29.794Z,99436.42
2022-12-04T17:18:42.024Z,99477.30
2022-12-04T17:21:53.875Z,99468.83
2022-12-04T17:25:05.704Z,99474.20
2022-12-04T17:28:18.018Z,99475.91
2022-12-04T17:31:32.592Z,99471.86
2022-12-04T17:34:44.796Z,99468.55
2022-12-04T17:38:05.684Z,99480.73
2022-12-04T17:41:17.791Z,99469.56
2022-12-04T17:44:29.918Z,99474.64
2022-12-04T17:47:43.114Z,99472.80
2022-12-04T17:50:55.001Z,99476.41
2022-12-04T17:54:06.986Z,99478.20
2022-12-04T17:57:18.768Z,99481.56
2022-12-04T18:00:30.961Z,99482.58
2022-12-04T18:03:43.940Z,99478.48
2022-12-04T18:06:56.786Z,99482.70
2022-12-04T18:10:09.800Z,99480.04
2022-12-04T18:13:21.875Z,99475.91
2022-12-04T18:16:36.687Z,99475.70
2022-12-04T18:19:49.222Z,99480.81
2022-12-04T18:23:01.037Z,99481.88
2022-12-04T18:26:13.392Z,99476.48
2022-12-04T18:29:27.762Z,99479.02
2022-12-04T18:32:39.495Z,99470.63
2022-12-04T18:35:59.128Z,99480.33
2022-12-04T18:39:14.514Z,99477.83
2022-12-04T18:42:26.672Z,99472.39
2022-12-04T18:45:38.564Z,99477.47
2022-12-04T18:48:52.873Z,99468.78
2022-12-04T18:52:06.383Z,99466.86
2022-12-04T18:55:18.990Z,99459.99
2022-12-04T18:58:30.722Z,99462.77
2022-12-04T19:01:42.864Z,99469.41
2022-12-04T19:05:07.859Z,99472.96
2022-12-04T19:08:20.024Z,99475.58
2022-12-04T19:11:32.663Z,99479.95
2022-12-04T19:14:44.898Z,99481.72
2022-12-04T19:17:56.921Z,99491.99
2022-12-04T19:21:12.772Z,99494.98
2022-12-04T19:24:25.081Z,99489.78
2022-12-04T19:27:37.453Z,99494.20
2022-12-04T19:30:49.445Z,99492.36
2022-12-04T19:34:02.146Z,99480.16
2022-12-04T19:37:14.487Z,99480.38
2022-12-04T19:40:27.347Z,99479.95
2022-12-04T19:43:39.532Z,99480.81
2022-12-04T19:46:51.406Z,99475.58
2022-12-04T19:50:03.702Z,99471.24
2022-12-04T19:53:15.996Z,99480.04
2022-12-04T19:56:30.723Z,99465.16
2022-12-04T19:59:46.193Z,99482.50
2022-12-04T20:02:57.503Z,99486.52
2022-12-04T20:06:12.618Z,99484.18
2022-12-04T20:09:27.582Z,99483.44
2022-12-04T20:12:39.679Z,99493.13
2022-12-04T20:15:51.635Z,99483.28
2022-12-04T20:19:04.315Z,99493.75
2022-12-04T20:22:16.367Z,99494.66
2022-12-04T20:25:28.351Z,99497.23
2022-12-04T20:28:40.626Z,99492.12
2022-12-04T20:31:53.517Z,99488.80
2022-12-04T20:35:05.298Z,99490.36
2022-12-04T20:38:17.396Z,99486.80
2022-12-04T20:41:30.665Z,99485.12
2022-12-04T20:44:42.886Z,99481.72
2022-12-04T20:51:40.184Z,99471.09
2022-12-04T20:54:54.111Z,99466.78
2022-12-04T20:58:15.282Z,99466.86
2022-12-04T21:01:39.335Z,99466.00
2022-12-04T21:04:51.324Z,99467.23
2022-12-04T21:11:46.883Z,99467.72
2022-12-04T21:15:13.652Z,99478.25
2022-12-04T21:18:26.240Z,99480.16
2022-12-04T21:21:39.009Z,99472.23
2022-12-04T21:24:51.428Z,99471.41
2022-12-04T21:28:03.195Z,99475.99
2022-12-04T21:31:15.530Z,99469.77
2022-12-04T21:34:28.014Z,99476.92
2022-12-04T21:37:40.730Z,99477.75
2022-12-04T21:40:55.397Z,99478.77
2022-12-04T21:44:09.860Z,99479.31
2022-12-04T21:47:21.766Z,99464.53
2022-12-04T21:50:33.698Z,99459.38
2022-12-04T21:53:45.550Z,99464.53
2022-12-04T21:56:57.347Z,99460.48
2022-12-04T22:00:10.848Z,99467.56
2022-12-04T22:03:23.063Z,99458.92
2022-12-04T22:06:38.031Z,99459.01
2022-12-04T22:09:50.373Z,99459.78
2022-12-04T22:13:02.073Z,99461.50
2022-12-04T22:16:17.980Z,99470.91
2022-12-04T22:19:30.373Z,99465.52
2022-12-04T22:22:43.049Z,99467.36
2022-12-04T22:25:54.889Z,99466.45
2022-12-04T22:29:26.998Z,99471.69
2022-12-04T22:32:20.656Z,99477.21
2022-12-04T22:35:32.668Z,99476.15
2022-12-04T22:39:08.073Z,99475.50
2022-12-04T22:41:59.503Z,99466.86
2022-12-04T22:45:13.292Z,99463.19
2022-12-04T22:48:25.356Z,99461.78
2022-12-04T22:51:37.240Z,99453.69
2022-12-04T22:54:49.049Z,99462.48
2022-12-04T22:58:00.709Z,99462.33
2022-12-04T23:01:18.241Z,99469.36
2022-12-04T23:04:30.149Z,99458.92
2022-12-04T23:07:41.926Z,99455.61
2022-12-04T23:10:53.703Z,99452.38
2022-12-04T23:14:08.254Z,99447.92
2022-12-04T23:17:20.664Z,99451.44
2022-12-04T23:20:32.601Z,99453.98
2022-12-04T23:23:47.219Z,99448.05
2022-12-04T23:27:00.176Z,99451.44
2022-12-04T23:30:14.488Z,99446.48
2022-12-04T23:33:26.380Z,99440.55
2022-12-04T23:36:38.700Z,99440.55
2022-12-04T23:39:50.382Z,99442.31
2022-12-04T23:43:02.006Z,99449.88
2022-12-04T23:46:15.431Z,99455.39
2022-12-04T23:49:27.137Z,99457.52
2022-12-04T23:52:39.007Z,99453.99
2022-12-04T23:55:52.923Z,99446.22
2022-12-04T23:59:05.046Z,99454.12
